Observation data for Tulia on 07/18/2019      Previous  Date  Next       Current Mesonet Observations  Soil Data  Daily Summary Page  Observations in Plain Language
KTIS 180500Z 16012KT 26/16 A2998 RMK A01 T02620157  RH  055%=      5-min Rain = 0
KTIS 180505Z 16012KT 26/16 A2998 RMK A01 T02620157  RH  055%=      5-min Rain = 0
KTIS 180510Z 16012KT 26/16 A2998 RMK A01 T02620158  RH  055%=      5-min Rain = 0
KTIS 180515Z 16012KT 26/16 A2999 RMK A01 T02620158  RH  055%=      5-min Rain = 0
KTIS 180520Z 16012KT 26/16 A2998 RMK A01 T02610158  RH  056%=      5-min Rain = 0
KTIS 180525Z 16012KT 26/16 A2998 RMK A01 T02610158  RH  055%=      5-min Rain = 0
KTIS 180530Z 16011KT 26/16 A2998 RMK A01 T02610157  RH  055%=      5-min Rain = 0
KTIS 180535Z 16012G17KT 26/16 A2998 RMK A01 T02620156  RH  055%=      5-min Rain = 0
KTIS 180540Z 16012KT 26/16 A2998 RMK A01 T02620156  RH  054%=      5-min Rain = 0
KTIS 180545Z 16012KT 26/16 A2998 RMK A01 T02610155  RH  054%=      5-min Rain = 0
KTIS 180550Z 16011KT 26/15 A2998 RMK A01 T02610154  RH  054%=      5-min Rain = 0
KTIS 180555Z 16011KT 26/15 A2998 RMK A01 T02600153  RH  054%=      5-min Rain = 0
KTIS 180600Z 16010KT 26/15 A2998 RMK A01 T02600153  RH  054%=      5-min Rain = 0
KTIS 180605Z 16010KT 26/15 A2998 RMK A01 T02580153  RH  054%=      5-min Rain = 0
KTIS 180610Z 17010KT 26/15 A2999 RMK A01 T02570152  RH  054%=      5-min Rain = 0
KTIS 180615Z 17010KT 26/15 A2999 RMK A01 T02580151  RH  054%=      5-min Rain = 0
KTIS 180620Z 16010G16KT 26/15 A2999 RMK A01 T02570151  RH  054%=      5-min Rain = 0
KTIS 180625Z 16010KT 26/15 A2998 RMK A01 T02560151  RH  054%=      5-min Rain = 0
KTIS 180630Z 17010KT 26/15 A2998 RMK A01 T02550151  RH  055%=      5-min Rain = 0
KTIS 180635Z 16010KT 25/15 A2999 RMK A01 T02540151  RH  055%=      5-min Rain = 0
KTIS 180640Z 17009KT 25/15 A2999 RMK A01 T02540150  RH  055%=      5-min Rain = 0
KTIS 180645Z 18009KT 25/15 A2999 RMK A01 T02540149  RH  055%=      5-min Rain = 0
KTIS 180650Z 18009KT 25/15 A2999 RMK A01 T02530149  RH  055%=      5-min Rain = 0
KTIS 180655Z 17008KT 25/15 A2999 RMK A01 T02510150  RH  056%=      5-min Rain = 0
KTIS 180700Z 17009KT 25/15 A2999 RMK A01 T02490149  RH  056%=      5-min Rain = 0
KTIS 180705Z 18010KT 25/15 A2999 RMK A01 T02490149  RH  056%=      5-min Rain = 0
KTIS 180710Z 17010KT 25/15 A2999 RMK A01 T02490149  RH  056%=      5-min Rain = 0
KTIS 180715Z 18011KT 25/15 A2999 RMK A01 T02500149  RH  056%=      5-min Rain = 0
KTIS 180720Z 19011KT 25/15 A2999 RMK A01 T02520150  RH  056%=      5-min Rain = 0
KTIS 180725Z 19012KT 25/15 A2999 RMK A01 T02530150  RH  055%=      5-min Rain = 0
KTIS 180730Z 20011KT 25/15 A2999 RMK A01 T02520150  RH  056%=      5-min Rain = 0
KTIS 180735Z 20012KT 25/15 A2999 RMK A01 T02510150  RH  056%=      5-min Rain = 0
KTIS 180740Z 20011KT 25/15 A2999 RMK A01 T02510151  RH  056%=      5-min Rain = 0
KTIS 180745Z 20011KT 25/15 A2999 RMK A01 T02490151  RH  057%=      5-min Rain = 0
KTIS 180750Z 20011KT 25/15 A2999 RMK A01 T02480151  RH  057%=      5-min Rain = 0
KTIS 180755Z 21010KT 25/15 A2999 RMK A01 T02470152  RH  058%=      5-min Rain = 0
KTIS 180800Z 20011KT 25/15 A2999 RMK A01 T02470152  RH  058%=      5-min Rain = 0
KTIS 180805Z 20011KT 25/15 A2999 RMK A01 T02450152  RH  059%=      5-min Rain = 0
KTIS 180810Z 20012KT 25/15 A2999 RMK A01 T02450152  RH  059%=      5-min Rain = 0
KTIS 180815Z 20012KT 25/15 A2999 RMK A01 T02450152  RH  059%=      5-min Rain = 0
KTIS 180820Z 19012KT 24/15 A2999 RMK A01 T02440152  RH  059%=      5-min Rain = 0
KTIS 180825Z 19013KT 24/15 A2998 RMK A01 T02430152  RH  059%=      5-min Rain = 0
KTIS 180830Z 19014KT 24/15 A2998 RMK A01 T02420152  RH  060%=      5-min Rain = 0
KTIS 180835Z 19014KT 24/15 A2998 RMK A01 T02420152  RH  060%=      5-min Rain = 0
KTIS 180840Z 19013KT 24/15 A2998 RMK A01 T02410152  RH  060%=      5-min Rain = 0
KTIS 180845Z 19012KT 24/15 A2998 RMK A01 T02390152  RH  061%=      5-min Rain = 0
KTIS 180850Z 19012KT 24/15 A2998 RMK A01 T02380152  RH  061%=      5-min Rain = 0
KTIS 180855Z 20012KT 24/15 A2998 RMK A01 T02380152  RH  062%=      5-min Rain = 0
KTIS 180900Z 20012G17KT 24/15 A2998 RMK A01 T02380153  RH  062%=      5-min Rain = 0
KTIS 180905Z 19012KT 24/15 A2998 RMK A01 T02370153  RH  062%=      5-min Rain = 0
KTIS 180910Z 20012G18KT 24/15 A2998 RMK A01 T02380154  RH  062%=      5-min Rain = 0
KTIS 180915Z 20011KT 24/15 A2998 RMK A01 T02370154  RH  063%=      5-min Rain = 0
KTIS 180920Z 20011KT 24/16 A2998 RMK A01 T02360155  RH  063%=      5-min Rain = 0
KTIS 180925Z 20010KT 24/16 A2998 RMK A01 T02360155  RH  063%=      5-min Rain = 0
KTIS 180930Z 21010KT 24/16 A2999 RMK A01 T02360156  RH  064%=      5-min Rain = 0
KTIS 180935Z 20011KT 24/16 A2999 RMK A01 T02360156  RH  064%=      5-min Rain = 0
KTIS 180940Z 20010KT 23/16 A2999 RMK A01 T02340157  RH  065%=      5-min Rain = 0
KTIS 180945Z 20010KT 23/16 A2998 RMK A01 T02340157  RH  065%=      5-min Rain = 0
KTIS 180950Z 19011KT 23/16 A2998 RMK A01 T02340157  RH  065%=      5-min Rain = 0
KTIS 180955Z 19011KT 23/16 A2999 RMK A01 T02340158  RH  065%=      5-min Rain = 0
KTIS 181000Z 19011G16KT 23/16 A2999 RMK A01 T02340158  RH  065%=      5-min Rain = 0
KTIS 181005Z 19011KT 24/16 A2999 RMK A01 T02350158  RH  065%=      5-min Rain = 0
KTIS 181010Z 19012G17KT 24/16 A2999 RMK A01 T02350158  RH  065%=      5-min Rain = 0
KTIS 181015Z 19011G16KT 24/16 A2999 RMK A01 T02350159  RH  065%=      5-min Rain = 0
KTIS 181020Z 19011KT 23/16 A2999 RMK A01 T02340159  RH  065%=      5-min Rain = 0
KTIS 181025Z 19010KT 23/16 A2999 RMK A01 T02340159  RH  066%=      5-min Rain = 0
KTIS 181030Z 19010KT 23/16 A2999 RMK A01 T02330159  RH  066%=      5-min Rain = 0
KTIS 181035Z 18010KT 23/16 A2999 RMK A01 T02320159  RH  067%=      5-min Rain = 0
KTIS 181040Z 18010KT 23/16 A2999 RMK A01 T02310159  RH  067%=      5-min Rain = 0
KTIS 181045Z 18010KT 23/16 A30 RMK A01 T02310159  RH  067%=      5-min Rain = 0
KTIS 181050Z 18010KT 23/16 A30 RMK A01 T02300159  RH  067%=      5-min Rain = 0
KTIS 181055Z 19010G15KT 23/16 A30 RMK A01 T02290159  RH  068%=      5-min Rain = 0
KTIS 181100Z 19011KT 23/16 A30 RMK A01 T02300159  RH  067%=      5-min Rain = 0
KTIS 181105Z 19011KT 23/16 A30 RMK A01 T02300159  RH  067%=      5-min Rain = 0
KTIS 181110Z 19010KT 23/16 A30 RMK A01 T02290159  RH  067%=      5-min Rain = 0
KTIS 181115Z 19011KT 23/16 A30 RMK A01 T02280158  RH  068%=      5-min Rain = 0
KTIS 181120Z 18010KT 23/16 A30 RMK A01 T02280158  RH  068%=      5-min Rain = 0
KTIS 181125Z 19009KT 23/16 A30 RMK A01 T02260158  RH  068%=      5-min Rain = 0
KTIS 181130Z 19009KT 23/16 A30 RMK A01 T02250158  RH  069%=      5-min Rain = 0
KTIS 181135Z 18009KT 22/16 A30 RMK A01 T02240157  RH  069%=      5-min Rain = 0
KTIS 181140Z 19009KT 22/16 A2999 RMK A01 T02230158  RH  070%=      5-min Rain = 0
KTIS 181145Z 19010KT 22/16 A30 RMK A01 T02230158  RH  070%=      5-min Rain = 0
KTIS 181200Z 17010KT 22/16 A2999 RMK A01 T02190158  RH  072%=      5-min Rain = 0
KTIS 181205Z 18011KT 22/16 A2999 RMK A01 T02210158  RH  071%=      5-min Rain = 0
KTIS 181210Z 18010KT 22/16 A2999 RMK A01 T02220157  RH  070%=      5-min Rain = 0
KTIS 181215Z 17010KT 22/16 A2999 RMK A01 T02230158  RH  070%=      5-min Rain = 0
KTIS 181220Z 18011KT 22/16 A2999 RMK A01 T02240157  RH  069%=      5-min Rain = 0
KTIS 181225Z 18011KT 23/16 A2999 RMK A01 T02260157  RH  068%=      5-min Rain = 0
KTIS 181230Z 18011KT 23/16 A2999 RMK A01 T02280157  RH  067%=      5-min Rain = 0
KTIS 181235Z 18012KT 23/16 A2999 RMK A01 T02300157  RH  067%=      5-min Rain = 0
KTIS 181240Z 18012KT 23/16 A2999 RMK A01 T02310157  RH  066%=      5-min Rain = 0
KTIS 181245Z 18013KT 23/16 A2999 RMK A01 T02330157  RH  065%=      5-min Rain = 0
KTIS 181250Z 18014KT 24/16 A30 RMK A01 T02350157  RH  064%=      5-min Rain = 0
KTIS 181255Z 18015KT 24/16 A2999 RMK A01 T02370157  RH  064%=      5-min Rain = 0
KTIS 181300Z 18016KT 24/16 A2999 RMK A01 T02390157  RH  063%=      5-min Rain = 0
KTIS 181305Z 18015G21KT 24/16 A2999 RMK A01 T02410157  RH  062%=      5-min Rain = 0
KTIS 181310Z 18017G23KT 24/16 A2999 RMK A01 T02420157  RH  062%=      5-min Rain = 0
KTIS 181315Z 18017G22KT 25/16 A2999 RMK A01 T02450157  RH  061%=      5-min Rain = 0
KTIS 181320Z 18016G22KT 25/16 A2999 RMK A01 T02470157  RH  060%=      5-min Rain = 0
KTIS 181325Z 18018G23KT 25/16 A2999 RMK A01 T02490157  RH  059%=      5-min Rain = 0
KTIS 181330Z 18019G25KT 25/16 A2998 RMK A01 T02510157  RH  059%=      5-min Rain = 0
KTIS 181335Z 18019G24KT 25/16 A2998 RMK A01 T02530157  RH  058%=      5-min Rain = 0
KTIS 181340Z 19019G29KT 26/16 A2998 RMK A01 T02550158  RH  058%=      5-min Rain = 0
KTIS 181345Z 19019G26KT 26/16 A2998 RMK A01 T02570158  RH  057%=      5-min Rain = 0
KTIS 181350Z 19020G27KT 26/16 A2999 RMK A01 T02580159  RH  057%=      5-min Rain = 0
KTIS 181355Z 19019G25KT 26/16 A2999 RMK A01 T02610159  RH  056%=      5-min Rain = 0
KTIS 181400Z 19019G26KT 26/16 A2999 RMK A01 T02630158  RH  055%=      5-min Rain = 0
KTIS 181405Z 19020G26KT 26/16 A2999 RMK A01 T02640158  RH  054%=      5-min Rain = 0
KTIS 181410Z 20020G25KT 27/16 A2999 RMK A01 T02680158  RH  053%=      5-min Rain = 0
KTIS 181415Z 19020G27KT 27/16 A2999 RMK A01 T02710157  RH  052%=      5-min Rain = 0
KTIS 181420Z 19020G26KT 27/16 A2999 RMK A01 T02730156  RH  051%=      5-min Rain = 0
KTIS 181425Z 20020G27KT 28/16 A2999 RMK A01 T02760156  RH  050%=      5-min Rain = 0
KTIS 181430Z 20020G25KT 28/16 A2999 RMK A01 T02780156  RH  050%=      5-min Rain = 0
KTIS 181435Z 19020G26KT 28/16 A2999 RMK A01 T02790156  RH  049%=      5-min Rain = 0
KTIS 181440Z 20020KT 28/16 A2999 RMK A01 T02800156  RH  049%=      5-min Rain = 0
KTIS 181445Z 20023G30KT 28/16 A2999 RMK A01 T02820156  RH  048%=      5-min Rain = 0
KTIS 181450Z 20021G28KT 28/16 A2999 RMK A01 T02840156  RH  048%=      5-min Rain = 0
KTIS 181455Z 20021G26KT 29/16 A2999 RMK A01 T02860156  RH  047%=      5-min Rain = 0
KTIS 181500Z 20022G27KT 29/16 A2998 RMK A01 T02880156  RH  047%=      5-min Rain = 0
KTIS 181505Z 20023G28KT 29/16 A2998 RMK A01 T02880155  RH  046%=      5-min Rain = 0
KTIS 181510Z 20022G28KT 29/16 A2998 RMK A01 T02890155  RH  046%=      5-min Rain = 0
KTIS 181515Z 20022G27KT 29/16 A2998 RMK A01 T02920155  RH  045%=      5-min Rain = 0
KTIS 181520Z 20019G26KT 30/16 A2998 RMK A01 T02960156  RH  045%=      5-min Rain = 0
KTIS 181525Z 20019G24KT 30/16 A2998 RMK A01 T02990156  RH  044%=      5-min Rain = 0
KTIS 181530Z 21017G23KT 30/16 A2998 RMK A01 T03000157  RH  044%=      5-min Rain = 0
KTIS 181535Z 21020G26KT 30/16 A2998 RMK A01 T03030155  RH  043%=      5-min Rain = 0
KTIS 181540Z 20020G25KT 30/15 A2998 RMK A01 T03000154  RH  043%=      5-min Rain = 0
KTIS 181545Z 20018G23KT 31/16 A2998 RMK A01 T03060156  RH  042%=      5-min Rain = 0
KTIS 181550Z 20019G24KT 31/16 A2998 RMK A01 T03060156  RH  042%=      5-min Rain = 0
KTIS 181555Z 20016G22KT 31/16 A2998 RMK A01 T03080158  RH  042%=      5-min Rain = 0
KTIS 181600Z 20014G19KT 31/16 A2998 RMK A01 T03130159  RH  041%=      5-min Rain = 0
KTIS 181605Z 19016G22KT 32/16 A2998 RMK A01 T03160158  RH  040%=      5-min Rain = 0
KTIS 181610Z 20015G20KT 32/16 A2998 RMK A01 T03180158  RH  040%=      5-min Rain = 0
KTIS 181615Z 21014G20KT 32/16 A2998 RMK A01 T03170157  RH  040%=      5-min Rain = 0
KTIS 181620Z 20015G20KT 32/16 A2998 RMK A01 T03220155  RH  038%=      5-min Rain = 0
KTIS 181625Z 21015G20KT 32/15 A2998 RMK A01 T03240154  RH  038%=      5-min Rain = 0
KTIS 181630Z 21016G22KT 32/15 A2998 RMK A01 T03200151  RH  038%=      5-min Rain = 0
KTIS 181635Z 21017G23KT 32/15 A2998 RMK A01 T03210150  RH  037%=      5-min Rain = 0
KTIS 181640Z 21015KT 32/15 A2998 RMK A01 T03230150  RH  037%=      5-min Rain = 0
KTIS 181645Z 21016G22KT 33/15 A2998 RMK A01 T03260153  RH  037%=      5-min Rain = 0
KTIS 181650Z 21016KT 33/15 A2998 RMK A01 T03260152  RH  037%=      5-min Rain = 0
KTIS 181655Z 21015KT 33/15 A2997 RMK A01 T03290154  RH  037%=      5-min Rain = 0
KTIS 181700Z 20016G22KT 33/16 A2997 RMK A01 T03290155  RH  037%=      5-min Rain = 0
KTIS 181705Z 20015G21KT 33/16 A2997 RMK A01 T03290155  RH  037%=      5-min Rain = 0
KTIS 181710Z 20016G23KT 33/16 A2997 RMK A01 T03320155  RH  036%=      5-min Rain = 0
KTIS 181715Z 19016G23KT 33/15 A2997 RMK A01 T03330154  RH  036%=      5-min Rain = 0
KTIS 181720Z 20016G22KT 34/15 A2997 RMK A01 T03390151  RH  034%=      5-min Rain = 0
KTIS 181725Z 21017G22KT 34/15 A2997 RMK A01 T03390149  RH  033%=      5-min Rain = 0
KTIS 181730Z 20016G21KT 34/15 A2997 RMK A01 T03370151  RH  034%=      5-min Rain = 0
KTIS 181735Z 21016G21KT 34/15 A2997 RMK A01 T03400149  RH  033%=      5-min Rain = 0
KTIS 181740Z 20017KT 34/15 A2996 RMK A01 T03410147  RH  033%=      5-min Rain = 0
KTIS 181745Z 20018KT 34/15 A2996 RMK A01 T03410147  RH  033%=      5-min Rain = 0
KTIS 181750Z 21016G21KT 34/15 A2996 RMK A01 T03440148  RH  032%=      5-min Rain = 0
KTIS 181755Z 21018G23KT 34/15 A2996 RMK A01 T03440147  RH  032%=      5-min Rain = 0
KTIS 181800Z 21016G22KT 34/15 A2996 RMK A01 T03440147  RH  032%=      5-min Rain = 0
KTIS 181805Z 20017KT 35/15 A2996 RMK A01 T03470147  RH  032%=      5-min Rain = 0
KTIS 181810Z 19017G25KT 35/15 A2995 RMK A01 T03480149  RH  032%=      5-min Rain = 0
KTIS 181815Z 19016G23KT 35/15 A2995 RMK A01 T03510148  RH  031%=      5-min Rain = 0
KTIS 181820Z 20016G23KT 35/15 A2995 RMK A01 T03540150  RH  031%=      5-min Rain = 0
KTIS 181825Z 19016G22KT 35/15 A2995 RMK A01 T03530148  RH  031%=      5-min Rain = 0
KTIS 181830Z 18018G26KT 36/15 A2995 RMK A01 T03550147  RH  030%=      5-min Rain = 0
KTIS 181835Z 18016G21KT 36/15 A2995 RMK A01 T03560150  RH  031%=      5-min Rain = 0
KTIS 181840Z 18016G21KT 36/15 A2994 RMK A01 T03560148  RH  030%=      5-min Rain = 0
KTIS 181845Z 18019G27KT 36/15 A2994 RMK A01 T03570147  RH  030%=      5-min Rain = 0
KTIS 181850Z 20015G21KT 36/15 A2994 RMK A01 T03610149  RH  030%=      5-min Rain = 0
KTIS 181855Z 18016KT 36/15 A2994 RMK A01 T03640152  RH  030%=      5-min Rain = 0
KTIS 181900Z 20014KT 36/15 A2994 RMK A01 T03610149  RH  030%=      5-min Rain = 0
KTIS 181905Z 19016G22KT 36/15 A2994 RMK A01 T03620149  RH  029%=      5-min Rain = 0
KTIS 181910Z 19015G24KT 36/15 A2994 RMK A01 T03600149  RH  030%=      5-min Rain = 0
KTIS 181915Z 18014G24KT 37/15 A2993 RMK A01 T03650151  RH  029%=      5-min Rain = 0
KTIS 181920Z 19017G23KT 37/15 A2993 RMK A01 T03670148  RH  028%=      5-min Rain = 0
KTIS 181925Z 20015G21KT 37/14 A2993 RMK A01 T03670142  RH  027%=      5-min Rain = 0
KTIS 181930Z 19014G19KT 37/15 A2993 RMK A01 T03720148  RH  028%=      5-min Rain = 0
KTIS 181935Z 18017G23KT 37/15 A2993 RMK A01 T03720148  RH  028%=      5-min Rain = 0
KTIS 181940Z 18015G23KT 37/15 A2993 RMK A01 T03700145  RH  028%=      5-min Rain = 0
KTIS 181945Z 18016G23KT 37/15 A2992 RMK A01 T03710145  RH  027%=      5-min Rain = 0
KTIS 181950Z 20016G23KT 37/15 A2992 RMK A01 T03740145  RH  027%=      5-min Rain = 0
KTIS 181955Z 19017G24KT 37/14 A2992 RMK A01 T03710143  RH  027%=      5-min Rain = 0
KTIS 182000Z 19016KT 37/15 A2992 RMK A01 T03720145  RH  027%=      5-min Rain = 0
KTIS 182005Z 18018G24KT 37/15 A2992 RMK A01 T03740149  RH  028%=      5-min Rain = 0
KTIS 182010Z 18018G25KT 37/15 A2992 RMK A01 T03710148  RH  028%=      5-min Rain = 0
KTIS 182015Z 19017G25KT 38/15 A2992 RMK A01 T03750146  RH  027%=      5-min Rain = 0
KTIS 182020Z 17018G23KT 38/15 A2991 RMK A01 T03750146  RH  027%=      5-min Rain = 0
KTIS 182025Z 18017KT 38/15 A2991 RMK A01 T03750145  RH  027%=      5-min Rain = 0
KTIS 182030Z 20016G22KT 38/14 A2991 RMK A01 T03770143  RH  026%=      5-min Rain = 0
KTIS 182035Z 19019G25KT 38/14 A2991 RMK A01 T03790142  RH  026%=      5-min Rain = 0
KTIS 182040Z 19016G25KT 38/14 A2991 RMK A01 T03770140  RH  026%=      5-min Rain = 0
KTIS 182045Z 19017G24KT 38/14 A2991 RMK A01 T03760140  RH  026%=      5-min Rain = 0
KTIS 182050Z 17019G30KT 38/15 A299 RMK A01 T03770145  RH  026%=      5-min Rain = 0
KTIS 182055Z 19019G27KT 38/14 A299 RMK A01 T03780144  RH  026%=      5-min Rain = 0
KTIS 182100Z 20016G22KT 38/14 A299 RMK A01 T03770138  RH  025%=      5-min Rain = 0
KTIS 182105Z 19017G24KT 38/14 A299 RMK A01 T03810137  RH  025%=      5-min Rain = 0
KTIS 182110Z 18018G27KT 38/14 A299 RMK A01 T03780141  RH  026%=      5-min Rain = 0
KTIS 182115Z 18016G21KT 38/14 A299 RMK A01 T03790143  RH  026%=      5-min Rain = 0
KTIS 182120Z 18016G23KT 38/14 A299 RMK A01 T03820143  RH  025%=      5-min Rain = 0
KTIS 182125Z 17017G23KT 39/14 A2989 RMK A01 T03860143  RH  025%=      5-min Rain = 0
KTIS 182130Z 19018G24KT 39/14 A2989 RMK A01 T03850137  RH  024%=      5-min Rain = 0
KTIS 182135Z 18018G25KT 38/14 A2989 RMK A01 T03830136  RH  024%=      5-min Rain = 0
KTIS 182140Z 19016G24KT 38/14 A2989 RMK A01 T03830137  RH  024%=      5-min Rain = 0
KTIS 182145Z 19017G23KT 38/14 A2989 RMK A01 T03830137  RH  024%=      5-min Rain = 0
KTIS 182150Z 19016G22KT 38/14 A2989 RMK A01 T03830137  RH  024%=      5-min Rain = 0
KTIS 182155Z 17016G23KT 38/14 A2989 RMK A01 T03830137  RH  024%=      5-min Rain = 0
KTIS 182200Z 17018G26KT 38/14 A2989 RMK A01 T03820140  RH  025%=      5-min Rain = 0
KTIS 182205Z 20017G23KT 38/14 A2989 RMK A01 T03830136  RH  024%=      5-min Rain = 0
KTIS 182210Z 17016G22KT 39/14 A2988 RMK A01 T03850139  RH  024%=      5-min Rain = 0
KTIS 182215Z 18018G25KT 38/14 A2988 RMK A01 T03840140  RH  025%=      5-min Rain = 0
KTIS 182220Z 17018G24KT 38/14 A2988 RMK A01 T03840139  RH  024%=      5-min Rain = 0
KTIS 182225Z 18018G26KT 38/14 A2988 RMK A01 T03820138  RH  025%=      5-min Rain = 0
KTIS 182230Z 19017G22KT 38/14 A2988 RMK A01 T03820138  RH  025%=      5-min Rain = 0
KTIS 182235Z 19018G25KT 38/14 A2987 RMK A01 T03790137  RH  025%=      5-min Rain = 0
KTIS 182240Z 18019G25KT 38/14 A2987 RMK A01 T03810137  RH  025%=      5-min Rain = 0
KTIS 182245Z 17020G25KT 38/14 A2987 RMK A01 T03800137  RH  025%=      5-min Rain = 0
KTIS 182250Z 18018G25KT 38/14 A2987 RMK A01 T03800136  RH  024%=      5-min Rain = 0
KTIS 182255Z 18019G25KT 38/14 A2987 RMK A01 T03810136  RH  024%=      5-min Rain = 0
KTIS 182300Z 18018G23KT 38/14 A2987 RMK A01 T03790135  RH  024%=      5-min Rain = 0
KTIS 182305Z 17018G23KT 38/14 A2986 RMK A01 T03790135  RH  024%=      5-min Rain = 0
KTIS 182310Z 17020G26KT 38/14 A2986 RMK A01 T03790136  RH  024%=      5-min Rain = 0
KTIS 182315Z 17018G23KT 38/14 A2986 RMK A01 T03770135  RH  025%=      5-min Rain = 0
KTIS 182320Z 17018G24KT 38/14 A2986 RMK A01 T03770136  RH  025%=      5-min Rain = 0
KTIS 182325Z 17021G26KT 38/13 A2986 RMK A01 T03760134  RH  025%=      5-min Rain = 0
KTIS 182330Z 18018G24KT 38/14 A2986 RMK A01 T03760135  RH  025%=      5-min Rain = 0
KTIS 182335Z 18019G24KT 38/14 A2986 RMK A01 T03750135  RH  025%=      5-min Rain = 0
KTIS 182340Z 18019G24KT 38/13 A2986 RMK A01 T03750134  RH  025%=      5-min Rain = 0
KTIS 182345Z 18018G24KT 37/13 A2986 RMK A01 T03740134  RH  025%=      5-min Rain = 0
KTIS 182350Z 18017G24KT 37/13 A2986 RMK A01 T03740134  RH  025%=      5-min Rain = 0
KTIS 182355Z 17019G24KT 37/13 A2986 RMK A01 T03720134  RH  025%=      5-min Rain = 0
KTIS 190000Z 17020KT 37/14 A2986 RMK A01 T03700135  RH  026%=      5-min Rain = 0
KTIS 190005Z 17018G24KT 37/14 A2986 RMK A01 T03690136  RH  026%=      5-min Rain = 0
KTIS 190010Z 17018G24KT 37/14 A2986 RMK A01 T03700137  RH  026%=      5-min Rain = 0
KTIS 190015Z 17018G24KT 37/14 A2986 RMK A01 T03680135  RH  026%=      5-min Rain = 0
KTIS 190020Z 17019G24KT 37/13 A2986 RMK A01 T03660132  RH  026%=      5-min Rain = 0
KTIS 190025Z 18017G24KT 37/14 A2986 RMK A01 T03660136  RH  027%=      5-min Rain = 0
KTIS 190030Z 17018G24KT 36/14 A2986 RMK A01 T03620140  RH  028%=      5-min Rain = 0
KTIS 190035Z 17017G24KT 36/14 A2986 RMK A01 T03600142  RH  028%=      5-min Rain = 0
KTIS 190040Z 17016G21KT 36/14 A2986 RMK A01 T03590144  RH  029%=      5-min Rain = 0
KTIS 190045Z 17018KT 36/14 A2986 RMK A01 T03560144  RH  029%=      5-min Rain = 0
KTIS 190050Z 17018G24KT 35/14 A2986 RMK A01 T03540142  RH  029%=      5-min Rain = 0
KTIS 190055Z 17016G21KT 35/14 A2986 RMK A01 T03530143  RH  030%=      5-min Rain = 0
KTIS 190100Z 17014KT 35/14 A2986 RMK A01 T03520144  RH  030%=      5-min Rain = 0
KTIS 190105Z 17016G21KT 35/14 A2987 RMK A01 T03500144  RH  031%=      5-min Rain = 0
KTIS 190110Z 17015KT 35/14 A2986 RMK A01 T03470144  RH  031%=      5-min Rain = 0
KTIS 190115Z 17015G21KT 35/14 A2987 RMK A01 T03450144  RH  031%=      5-min Rain = 0
KTIS 190120Z 16015KT 34/15 A2987 RMK A01 T03420146  RH  032%=      5-min Rain = 0
KTIS 190125Z 16015G20KT 34/15 A2987 RMK A01 T03400148  RH  033%=      5-min Rain = 0
KTIS 190130Z 16015G20KT 34/15 A2987 RMK A01 T03380147  RH  033%=      5-min Rain = 0
KTIS 190135Z 16014KT 34/15 A2987 RMK A01 T03350148  RH  034%=      5-min Rain = 0
KTIS 190140Z 16014KT 33/15 A2987 RMK A01 T03320150  RH  035%=      5-min Rain = 0
KTIS 190145Z 16014KT 33/15 A2987 RMK A01 T03290150  RH  036%=      5-min Rain = 0
KTIS 190150Z 16014G19KT 33/15 A2987 RMK A01 T03270149  RH  036%=      5-min Rain = 0
KTIS 190155Z 16013KT 32/15 A2988 RMK A01 T03240148  RH  036%=      5-min Rain = 0
KTIS 190200Z 16013KT 32/15 A2988 RMK A01 T03220149  RH  037%=      5-min Rain = 0
KTIS 190205Z 16013KT 32/15 A2988 RMK A01 T03200148  RH  037%=      5-min Rain = 0
KTIS 190210Z 16013KT 32/15 A2988 RMK A01 T03170147  RH  037%=      5-min Rain = 0
KTIS 190215Z 16013KT 32/15 A2988 RMK A01 T03160147  RH  038%=      5-min Rain = 0
KTIS 190220Z 16012KT 31/15 A2988 RMK A01 T03130148  RH  038%=      5-min Rain = 0
KTIS 190225Z 16012KT 31/15 A2988 RMK A01 T03110148  RH  039%=      5-min Rain = 0
KTIS 190230Z 16012KT 31/15 A2988 RMK A01 T03100147  RH  039%=      5-min Rain = 0
KTIS 190235Z 16011KT 31/15 A2988 RMK A01 T03070147  RH  039%=      5-min Rain = 0
KTIS 190240Z 16012KT 31/15 A2988 RMK A01 T03060147  RH  040%=      5-min Rain = 0
KTIS 190245Z 16011KT 31/15 A2989 RMK A01 T03050147  RH  040%=      5-min Rain = 0
KTIS 190250Z 16012KT 30/15 A2989 RMK A01 T03030147  RH  040%=      5-min Rain = 0
KTIS 190255Z 16012KT 30/15 A2989 RMK A01 T03020147  RH  041%=      5-min Rain = 0
KTIS 190300Z 16011KT 30/15 A2989 RMK A01 T03000147  RH  041%=      5-min Rain = 0
KTIS 190305Z 16012KT 30/15 A2989 RMK A01 T02990146  RH  041%=      5-min Rain = 0
KTIS 190310Z 16012KT 30/15 A2989 RMK A01 T02990146  RH  041%=      5-min Rain = 0
KTIS 190315Z 16012KT 30/15 A2989 RMK A01 T02980145  RH  041%=      5-min Rain = 0
KTIS 190320Z 16011KT 30/15 A2989 RMK A01 T02960145  RH  042%=      5-min Rain = 0
KTIS 190325Z 16011KT 30/15 A299 RMK A01 T02950145  RH  042%=      5-min Rain = 0
KTIS 190330Z 16011KT 29/14 A299 RMK A01 T02930144  RH  042%=      5-min Rain = 0
KTIS 190335Z 17011KT 29/14 A299 RMK A01 T02920144  RH  042%=      5-min Rain = 0
KTIS 190340Z 17011KT 29/14 A299 RMK A01 T02930143  RH  042%=      5-min Rain = 0
KTIS 190345Z 17010KT 29/14 A2991 RMK A01 T02930143  RH  042%=      5-min Rain = 0
KTIS 190350Z 17010KT 29/14 A2991 RMK A01 T02930142  RH  041%=      5-min Rain = 0
KTIS 190355Z 17010KT 29/14 A2991 RMK A01 T02930142  RH  041%=      5-min Rain = 0
KTIS 190400Z 17010KT 29/14 A2991 RMK A01 T02930142  RH  041%=      5-min Rain = 0
KTIS 190405Z 17010KT 29/14 A2991 RMK A01 T02920141  RH  041%=      5-min Rain = 0
KTIS 190410Z 17010KT 29/14 A2991 RMK A01 T02920141  RH  041%=      5-min Rain = 0
KTIS 190415Z 17010KT 29/14 A2991 RMK A01 T02910141  RH  042%=      5-min Rain = 0
KTIS 190420Z 17010KT 29/14 A2992 RMK A01 T02910142  RH  042%=      5-min Rain = 0
KTIS 190425Z 17010KT 29/14 A2992 RMK A01 T02880141  RH  042%=      5-min Rain = 0
KTIS 190430Z 17010KT 29/14 A2992 RMK A01 T02890141  RH  042%=      5-min Rain = 0
KTIS 190435Z 17010KT 29/14 A2992 RMK A01 T02890141  RH  042%=      5-min Rain = 0
KTIS 190440Z 17011KT 29/14 A2992 RMK A01 T02890140  RH  042%=      5-min Rain = 0
KTIS 190445Z 17011KT 29/14 A2992 RMK A01 T02900139  RH  041%=      5-min Rain = 0
KTIS 190450Z 17011KT 29/14 A2992 RMK A01 T02890139  RH  042%=      5-min Rain = 0
KTIS 190455Z 16010KT 29/14 A2993 RMK A01 T02860141  RH  043%=      5-min Rain = 0

Page generated in 0.009 seconds.